sensor_id;sensor_type;location;lat;lon;timestamp;P1;durP1;ratioP1;P2;durP2;ratioP2
21771;SDS011;11047;47.904;8.110;2023-04-15T00:01:09;4.35;;;1.48;;
21771;SDS011;11047;47.904;8.110;2023-04-15T00:03:37;3.50;;;1.38;;
21771;SDS011;11047;47.904;8.110;2023-04-15T00:06:04;1.40;;;0.98;;
21771;SDS011;11047;47.904;8.110;2023-04-15T00:08:31;2.13;;;1.65;;
21771;SDS011;11047;47.904;8.110;2023-04-15T00:10:58;1.05;;;0.90;;
21771;SDS011;11047;47.904;8.110;2023-04-15T00:13:27;7.75;;;1.17;;
21771;SDS011;11047;47.904;8.110;2023-04-15T00:15:54;3.50;;;1.13;;
21771;SDS011;11047;47.904;8.110;2023-04-15T00:18:22;3.13;;;1.35;;
21771;SDS011;11047;47.904;8.110;2023-04-15T00:20:49;3.65;;;1.27;;
21771;SDS011;11047;47.904;8.110;2023-04-15T00:23:16;2.85;;;1.13;;
21771;SDS011;11047;47.904;8.110;2023-04-15T00:25:43;4.35;;;1.20;;
21771;SDS011;11047;47.904;8.110;2023-04-15T00:28:10;1.63;;;1.27;;
21771;SDS011;11047;47.904;8.110;2023-04-15T00:30:37;3.30;;;1.40;;
21771;SDS011;11047;47.904;8.110;2023-04-15T00:33:04;6.78;;;1.30;;
21771;SDS011;11047;47.904;8.110;2023-04-15T00:35:33;2.72;;;1.33;;
21771;SDS011;11047;47.904;8.110;2023-04-15T00:38:00;5.18;;;1.67;;
21771;SDS011;11047;47.904;8.110;2023-04-15T00:40:29;1.33;;;0.93;;
21771;SDS011;11047;47.904;8.110;2023-04-15T00:42:56;2.83;;;1.27;;
21771;SDS011;11047;47.904;8.110;2023-04-15T00:45:22;8.30;;;1.45;;
21771;SDS011;11047;47.904;8.110;2023-04-15T00:47:51;1.77;;;1.35;;
21771;SDS011;11047;47.904;8.110;2023-04-15T00:50:18;2.42;;;1.20;;
21771;SDS011;11047;47.904;8.110;2023-04-15T00:52:47;2.03;;;1.10;;
21771;SDS011;11047;47.904;8.110;2023-04-15T00:55:14;2.95;;;0.90;;
21771;SDS011;11047;47.904;8.110;2023-04-15T00:57:41;1.80;;;1.27;;
21771;SDS011;11047;47.904;8.110;2023-04-15T01:00:08;2.95;;;1.20;;
21771;SDS011;11047;47.904;8.110;2023-04-15T01:02:36;5.97;;;1.40;;
21771;SDS011;11047;47.904;8.110;2023-04-15T01:05:03;5.90;;;1.60;;
21771;SDS011;11047;47.904;8.110;2023-04-15T01:07:31;2.67;;;1.10;;
21771;SDS011;11047;47.904;8.110;2023-04-15T01:10:00;1.33;;;1.00;;
21771;SDS011;11047;47.904;8.110;2023-04-15T01:12:27;3.75;;;0.90;;
21771;SDS011;11047;47.904;8.110;2023-04-15T01:14:54;2.33;;;1.48;;
21771;SDS011;11047;47.904;8.110;2023-04-15T01:17:21;3.67;;;1.45;;
21771;SDS011;11047;47.904;8.110;2023-04-15T01:19:50;2.30;;;1.10;;
21771;SDS011;11047;47.904;8.110;2023-04-15T01:22:17;2.47;;;0.98;;
21771;SDS011;11047;47.904;8.110;2023-04-15T01:24:46;2.85;;;1.25;;
21771;SDS011;11047;47.904;8.110;2023-04-15T01:27:21;3.85;;;1.30;;
21771;SDS011;11047;47.904;8.110;2023-04-15T01:29:48;3.90;;;1.77;;
21771;SDS011;11047;47.904;8.110;2023-04-15T01:32:15;2.88;;;1.20;;
21771;SDS011;11047;47.904;8.110;2023-04-15T01:34:42;2.20;;;1.20;;
21771;SDS011;11047;47.904;8.110;2023-04-15T01:37:08;6.15;;;1.00;;
21771;SDS011;11047;47.904;8.110;2023-04-15T01:39:35;3.42;;;0.93;;
21771;SDS011;11047;47.904;8.110;2023-04-15T01:42:03;3.40;;;1.20;;
21771;SDS011;11047;47.904;8.110;2023-04-15T01:44:32;6.18;;;1.20;;
21771;SDS011;11047;47.904;8.110;2023-04-15T01:46:59;2.78;;;1.02;;
21771;SDS011;11047;47.904;8.110;2023-04-15T01:49:26;5.07;;;1.27;;
21771;SDS011;11047;47.904;8.110;2023-04-15T01:51:53;4.82;;;1.20;;
21771;SDS011;11047;47.904;8.110;2023-04-15T01:54:20;3.63;;;1.40;;
21771;SDS011;11047;47.904;8.110;2023-04-15T01:56:46;3.08;;;1.30;;
21771;SDS011;11047;47.904;8.110;2023-04-15T01:59:13;4.70;;;1.50;;
21771;SDS011;11047;47.904;8.110;2023-04-15T02:01:42;3.28;;;1.15;;
21771;SDS011;11047;47.904;8.110;2023-04-15T02:04:09;1.77;;;1.10;;
21771;SDS011;11047;47.904;8.110;2023-04-15T02:06:40;6.97;;;1.30;;
21771;SDS011;11047;47.904;8.110;2023-04-15T02:09:07;1.52;;;0.93;;
21771;SDS011;11047;47.904;8.110;2023-04-15T02:11:34;3.45;;;1.40;;
21771;SDS011;11047;47.904;8.110;2023-04-15T02:14:03;2.25;;;1.02;;
21771;SDS011;11047;47.904;8.110;2023-04-15T02:16:30;6.07;;;1.10;;
21771;SDS011;11047;47.904;8.110;2023-04-15T02:18:59;3.03;;;1.00;;
21771;SDS011;11047;47.904;8.110;2023-04-15T02:21:27;2.80;;;1.02;;
21771;SDS011;11047;47.904;8.110;2023-04-15T02:23:55;2.35;;;1.00;;
21771;SDS011;11047;47.904;8.110;2023-04-15T02:26:22;2.40;;;0.82;;
21771;SDS011;11047;47.904;8.110;2023-04-15T02:28:49;3.88;;;0.93;;
21771;SDS011;11047;47.904;8.110;2023-04-15T02:31:16;2.22;;;1.20;;
21771;SDS011;11047;47.904;8.110;2023-04-15T02:33:43;3.40;;;1.55;;
21771;SDS011;11047;47.904;8.110;2023-04-15T02:36:12;1.55;;;1.20;;
21771;SDS011;11047;47.904;8.110;2023-04-15T02:38:39;2.88;;;1.50;;
21771;SDS011;11047;47.904;8.110;2023-04-15T02:41:07;2.88;;;0.90;;
21771;SDS011;11047;47.904;8.110;2023-04-15T02:43:34;1.75;;;0.80;;
21771;SDS011;11047;47.904;8.110;2023-04-15T02:46:02;2.80;;;1.17;;
21771;SDS011;11047;47.904;8.110;2023-04-15T02:48:29;2.50;;;1.38;;
21771;SDS011;11047;47.904;8.110;2023-04-15T02:51:09;4.07;;;1.20;;
21771;SDS011;11047;47.904;8.110;2023-04-15T02:53:38;1.48;;;0.90;;
21771;SDS011;11047;47.904;8.110;2023-04-15T02:56:06;3.47;;;1.23;;
21771;SDS011;11047;47.904;8.110;2023-04-15T02:58:33;5.60;;;1.10;;
21771;SDS011;11047;47.904;8.110;2023-04-15T03:01:00;2.25;;;1.15;;
21771;SDS011;11047;47.904;8.110;2023-04-15T03:03:27;3.67;;;1.20;;
21771;SDS011;11047;47.904;8.110;2023-04-15T03:05:54;4.75;;;1.17;;
21771;SDS011;11047;47.904;8.110;2023-04-15T03:08:23;3.55;;;1.00;;
21771;SDS011;11047;47.904;8.110;2023-04-15T03:10:50;5.25;;;1.30;;
21771;SDS011;11047;47.904;8.110;2023-04-15T03:13:17;2.22;;;1.25;;
21771;SDS011;11047;47.904;8.110;2023-04-15T03:15:45;2.65;;;1.10;;
21771;SDS011;11047;47.904;8.110;2023-04-15T03:18:12;2.00;;;1.00;;
21771;SDS011;11047;47.904;8.110;2023-04-15T03:20:38;4.53;;;1.42;;
21771;SDS011;11047;47.904;8.110;2023-04-15T03:23:05;4.00;;;1.10;;
21771;SDS011;11047;47.904;8.110;2023-04-15T03:25:34;4.53;;;1.30;;
21771;SDS011;11047;47.904;8.110;2023-04-15T03:28:02;2.38;;;1.13;;
21771;SDS011;11047;47.904;8.110;2023-04-15T03:30:29;1.98;;;1.30;;
21771;SDS011;11047;47.904;8.110;2023-04-15T03:32:56;3.10;;;1.20;;
21771;SDS011;11047;47.904;8.110;2023-04-15T03:35:23;1.52;;;1.13;;
21771;SDS011;11047;47.904;8.110;2023-04-15T03:37:50;1.65;;;1.20;;
21771;SDS011;11047;47.904;8.110;2023-04-15T03:40:17;3.85;;;1.30;;
21771;SDS011;11047;47.904;8.110;2023-04-15T03:42:45;4.28;;;1.63;;
21771;SDS011;11047;47.904;8.110;2023-04-15T03:45:12;3.17;;;0.95;;
21771;SDS011;11047;47.904;8.110;2023-04-15T03:47:39;5.00;;;1.08;;
21771;SDS011;11047;47.904;8.110;2023-04-15T03:50:06;3.65;;;1.50;;
21771;SDS011;11047;47.904;8.110;2023-04-15T03:52:33;2.17;;;1.10;;
21771;SDS011;11047;47.904;8.110;2023-04-15T03:55:00;7.57;;;1.50;;
21771;SDS011;11047;47.904;8.110;2023-04-15T03:57:27;2.30;;;1.40;;
21771;SDS011;11047;47.904;8.110;2023-04-15T03:59:56;3.10;;;1.10;;
21771;SDS011;11047;47.904;8.110;2023-04-15T04:02:22;4.30;;;1.20;;
21771;SDS011;11047;47.904;8.110;2023-04-15T04:04:49;6.00;;;1.33;;
21771;SDS011;11047;47.904;8.110;2023-04-15T04:07:16;3.78;;;1.50;;
21771;SDS011;11047;47.904;8.110;2023-04-15T04:09:43;3.30;;;1.27;;
21771;SDS011;11047;47.904;8.110;2023-04-15T04:12:10;4.43;;;1.20;;
21771;SDS011;11047;47.904;8.110;2023-04-15T04:14:37;3.33;;;1.40;;
21771;SDS011;11047;47.904;8.110;2023-04-15T04:17:05;3.97;;;1.27;;
21771;SDS011;11047;47.904;8.110;2023-04-15T04:19:32;2.85;;;1.40;;
21771;SDS011;11047;47.904;8.110;2023-04-15T04:21:59;3.03;;;1.20;;
21771;SDS011;11047;47.904;8.110;2023-04-15T04:24:26;4.03;;;1.42;;
21771;SDS011;11047;47.904;8.110;2023-04-15T04:26:53;1.98;;;1.23;;
21771;SDS011;11047;47.904;8.110;2023-04-15T04:29:20;2.65;;;1.20;;
21771;SDS011;11047;47.904;8.110;2023-04-15T04:31:47;2.85;;;1.40;;
21771;SDS011;11047;47.904;8.110;2023-04-15T04:34:15;2.50;;;1.00;;
21771;SDS011;11047;47.904;8.110;2023-04-15T04:36:42;2.55;;;1.40;;
21771;SDS011;11047;47.904;8.110;2023-04-15T04:39:09;1.90;;;1.05;;
21771;SDS011;11047;47.904;8.110;2023-04-15T04:41:36;4.13;;;1.00;;
21771;SDS011;11047;47.904;8.110;2023-04-15T04:44:03;5.80;;;1.42;;
21771;SDS011;11047;47.904;8.110;2023-04-15T04:46:30;3.72;;;1.60;;
21771;SDS011;11047;47.904;8.110;2023-04-15T04:48:57;4.35;;;1.33;;
21771;SDS011;11047;47.904;8.110;2023-04-15T04:51:25;7.28;;;1.80;;
21771;SDS011;11047;47.904;8.110;2023-04-15T04:53:52;7.28;;;1.65;;
21771;SDS011;11047;47.904;8.110;2023-04-15T04:56:20;3.08;;;1.25;;
21771;SDS011;11047;47.904;8.110;2023-04-15T04:58:47;1.80;;;1.23;;
21771;SDS011;11047;47.904;8.110;2023-04-15T05:01:14;3.63;;;1.30;;
21771;SDS011;11047;47.904;8.110;2023-04-15T05:03:41;5.28;;;1.48;;
21771;SDS011;11047;47.904;8.110;2023-04-15T05:06:08;3.45;;;1.38;;
21771;SDS011;11047;47.904;8.110;2023-04-15T05:08:36;3.33;;;1.30;;
21771;SDS011;11047;47.904;8.110;2023-04-15T05:11:05;1.75;;;1.10;;
21771;SDS011;11047;47.904;8.110;2023-04-15T05:13:32;6.78;;;1.50;;
21771;SDS011;11047;47.904;8.110;2023-04-15T05:16:02;2.65;;;1.70;;
21771;SDS011;11047;47.904;8.110;2023-04-15T05:18:30;4.10;;;1.27;;
21771;SDS011;11047;47.904;8.110;2023-04-15T05:20:57;5.32;;;1.60;;
21771;SDS011;11047;47.904;8.110;2023-04-15T05:23:24;3.88;;;1.88;;
21771;SDS011;11047;47.904;8.110;2023-04-15T05:25:52;6.55;;;1.52;;
21771;SDS011;11047;47.904;8.110;2023-04-15T05:28:19;4.05;;;1.85;;
21771;SDS011;11047;47.904;8.110;2023-04-15T05:30:46;5.47;;;1.60;;
21771;SDS011;11047;47.904;8.110;2023-04-15T05:33:13;5.10;;;1.77;;
21771;SDS011;11047;47.904;8.110;2023-04-15T05:35:40;3.15;;;1.27;;
21771;SDS011;11047;47.904;8.110;2023-04-15T05:38:07;3.30;;;1.50;;
21771;SDS011;11047;47.904;8.110;2023-04-15T05:40:34;3.22;;;1.63;;
21771;SDS011;11047;47.904;8.110;2023-04-15T05:43:02;2.85;;;1.40;;
21771;SDS011;11047;47.904;8.110;2023-04-15T05:45:29;3.95;;;1.20;;
21771;SDS011;11047;47.904;8.110;2023-04-15T05:47:57;4.93;;;1.05;;
21771;SDS011;11047;47.904;8.110;2023-04-15T05:50:23;3.75;;;1.40;;
21771;SDS011;11047;47.904;8.110;2023-04-15T05:52:50;2.75;;;1.45;;
21771;SDS011;11047;47.904;8.110;2023-04-15T05:55:17;2.67;;;1.58;;
21771;SDS011;11047;47.904;8.110;2023-04-15T05:57:44;2.42;;;1.60;;
21771;SDS011;11047;47.904;8.110;2023-04-15T06:00:13;3.00;;;1.30;;
21771;SDS011;11047;47.904;8.110;2023-04-15T06:02:41;3.78;;;1.60;;
21771;SDS011;11047;47.904;8.110;2023-04-15T06:05:08;2.83;;;1.50;;
21771;SDS011;11047;47.904;8.110;2023-04-15T06:07:35;4.25;;;1.60;;
21771;SDS011;11047;47.904;8.110;2023-04-15T06:10:03;6.30;;;2.13;;
21771;SDS011;11047;47.904;8.110;2023-04-15T06:12:31;2.85;;;1.60;;
21771;SDS011;11047;47.904;8.110;2023-04-15T06:14:58;3.05;;;1.20;;
21771;SDS011;11047;47.904;8.110;2023-04-15T06:17:26;7.40;;;2.05;;
21771;SDS011;11047;47.904;8.110;2023-04-15T06:19:53;4.72;;;1.88;;
21771;SDS011;11047;47.904;8.110;2023-04-15T06:22:20;4.22;;;1.35;;
21771;SDS011;11047;47.904;8.110;2023-04-15T06:24:47;3.25;;;1.60;;
21771;SDS011;11047;47.904;8.110;2023-04-15T06:27:15;3.75;;;1.70;;
21771;SDS011;11047;47.904;8.110;2023-04-15T06:29:42;3.63;;;1.50;;
21771;SDS011;11047;47.904;8.110;2023-04-15T06:32:10;2.35;;;1.70;;
21771;SDS011;11047;47.904;8.110;2023-04-15T06:34:38;3.72;;;2.00;;
21771;SDS011;11047;47.904;8.110;2023-04-15T06:37:05;2.28;;;1.60;;
21771;SDS011;11047;47.904;8.110;2023-04-15T06:39:34;6.50;;;2.63;;
21771;SDS011;11047;47.904;8.110;2023-04-15T06:42:01;4.82;;;3.05;;
21771;SDS011;11047;47.904;8.110;2023-04-15T06:44:28;4.22;;;2.97;;
21771;SDS011;11047;47.904;8.110;2023-04-15T06:46:55;4.43;;;2.80;;
21771;SDS011;11047;47.904;8.110;2023-04-15T06:49:22;4.00;;;2.58;;
21771;SDS011;11047;47.904;8.110;2023-04-15T06:51:51;3.47;;;1.75;;
21771;SDS011;11047;47.904;8.110;2023-04-15T06:54:18;6.22;;;1.52;;
21771;SDS011;11047;47.904;8.110;2023-04-15T06:56:44;3.65;;;1.90;;
21771;SDS011;11047;47.904;8.110;2023-04-15T06:59:11;5.32;;;3.00;;
21771;SDS011;11047;47.904;8.110;2023-04-15T07:01:39;8.98;;;2.40;;
21771;SDS011;11047;47.904;8.110;2023-04-15T07:04:06;3.53;;;2.00;;
21771;SDS011;11047;47.904;8.110;2023-04-15T07:06:33;2.90;;;1.77;;
21771;SDS011;11047;47.904;8.110;2023-04-15T07:09:02;2.90;;;1.80;;
21771;SDS011;11047;47.904;8.110;2023-04-15T07:11:29;1.92;;;1.42;;
21771;SDS011;11047;47.904;8.110;2023-04-15T07:13:57;4.07;;;1.92;;
21771;SDS011;11047;47.904;8.110;2023-04-15T07:16:23;4.35;;;2.00;;
21771;SDS011;11047;47.904;8.110;2023-04-15T07:18:50;7.85;;;1.80;;
21771;SDS011;11047;47.904;8.110;2023-04-15T07:21:17;6.63;;;1.70;;
21771;SDS011;11047;47.904;8.110;2023-04-15T07:23:45;6.43;;;1.95;;
21771;SDS011;11047;47.904;8.110;2023-04-15T07:26:14;4.28;;;1.52;;
21771;SDS011;11047;47.904;8.110;2023-04-15T07:28:41;4.47;;;1.58;;
21771;SDS011;11047;47.904;8.110;2023-04-15T07:31:07;2.83;;;1.10;;
21771;SDS011;11047;47.904;8.110;2023-04-15T07:33:35;2.40;;;1.08;;
21771;SDS011;11047;47.904;8.110;2023-04-15T07:36:02;2.17;;;0.95;;
21771;SDS011;11047;47.904;8.110;2023-04-15T07:38:29;3.47;;;1.20;;
21771;SDS011;11047;47.904;8.110;2023-04-15T07:40:56;3.90;;;1.35;;
21771;SDS011;11047;47.904;8.110;2023-04-15T07:43:24;2.80;;;1.23;;
21771;SDS011;11047;47.904;8.110;2023-04-15T07:45:51;5.15;;;1.75;;
21771;SDS011;11047;47.904;8.110;2023-04-15T07:48:18;3.42;;;1.08;;
21771;SDS011;11047;47.904;8.110;2023-04-15T07:50:45;1.73;;;0.98;;
21771;SDS011;11047;47.904;8.110;2023-04-15T07:53:12;5.50;;;1.23;;
21771;SDS011;11047;47.904;8.110;2023-04-15T07:55:39;3.63;;;1.17;;
21771;SDS011;11047;47.904;8.110;2023-04-15T07:58:06;3.22;;;1.27;;
21771;SDS011;11047;47.904;8.110;2023-04-15T08:00:34;1.98;;;1.00;;
21771;SDS011;11047;47.904;8.110;2023-04-15T08:03:02;2.95;;;1.05;;
21771;SDS011;11047;47.904;8.110;2023-04-15T08:05:29;3.75;;;0.98;;
21771;SDS011;11047;47.904;8.110;2023-04-15T08:07:57;2.60;;;0.80;;
21771;SDS011;11047;47.904;8.110;2023-04-15T08:10:24;1.52;;;1.00;;
21771;SDS011;11047;47.904;8.110;2023-04-15T08:12:51;1.70;;;0.90;;
21771;SDS011;11047;47.904;8.110;2023-04-15T08:15:18;3.72;;;0.75;;
21771;SDS011;11047;47.904;8.110;2023-04-15T08:17:47;1.55;;;0.70;;
21771;SDS011;11047;47.904;8.110;2023-04-15T08:20:14;1.90;;;0.80;;
21771;SDS011;11047;47.904;8.110;2023-04-15T08:22:41;2.33;;;0.95;;
21771;SDS011;11047;47.904;8.110;2023-04-15T08:25:08;2.03;;;0.82;;
21771;SDS011;11047;47.904;8.110;2023-04-15T08:27:35;1.95;;;0.70;;
21771;SDS011;11047;47.904;8.110;2023-04-15T08:30:02;1.48;;;0.75;;
21771;SDS011;11047;47.904;8.110;2023-04-15T08:32:30;2.45;;;0.80;;
21771;SDS011;11047;47.904;8.110;2023-04-15T08:34:58;2.63;;;1.13;;
21771;SDS011;11047;47.904;8.110;2023-04-15T08:37:25;3.72;;;0.80;;
21771;SDS011;11047;47.904;8.110;2023-04-15T08:39:52;3.38;;;1.13;;
21771;SDS011;11047;47.904;8.110;2023-04-15T08:42:22;5.03;;;1.02;;
21771;SDS011;11047;47.904;8.110;2023-04-15T08:44:53;2.40;;;0.80;;
21771;SDS011;11047;47.904;8.110;2023-04-15T08:47:20;2.60;;;0.70;;
21771;SDS011;11047;47.904;8.110;2023-04-15T08:49:51;2.72;;;0.85;;
21771;SDS011;11047;47.904;8.110;2023-04-15T08:52:22;5.75;;;1.10;;
21771;SDS011;11047;47.904;8.110;2023-04-15T08:54:51;1.80;;;0.80;;
21771;SDS011;11047;47.904;8.110;2023-04-15T08:57:22;3.33;;;0.90;;
21771;SDS011;11047;47.904;8.110;2023-04-15T08:59:51;1.50;;;1.10;;
21771;SDS011;11047;47.904;8.110;2023-04-15T09:02:18;2.90;;;1.80;;
21771;SDS011;11047;47.904;8.110;2023-04-15T09:04:45;2.92;;;1.05;;
21771;SDS011;11047;47.904;8.110;2023-04-15T09:07:12;3.55;;;0.90;;
21771;SDS011;11047;47.904;8.110;2023-04-15T09:09:40;3.13;;;1.02;;
21771;SDS011;11047;47.904;8.110;2023-04-15T09:12:08;2.22;;;1.20;;
21771;SDS011;11047;47.904;8.110;2023-04-15T09:14:35;2.05;;;1.02;;
21771;SDS011;11047;47.904;8.110;2023-04-15T09:17:03;3.65;;;1.27;;
21771;SDS011;11047;47.904;8.110;2023-04-15T09:19:30;4.97;;;1.42;;
21771;SDS011;11047;47.904;8.110;2023-04-15T09:21:58;5.45;;;1.65;;
21771;SDS011;11047;47.904;8.110;2023-04-15T09:24:32;3.60;;;1.48;;
21771;SDS011;11047;47.904;8.110;2023-04-15T09:27:04;2.40;;;1.02;;
21771;SDS011;11047;47.904;8.110;2023-04-15T09:29:31;5.55;;;1.50;;
21771;SDS011;11047;47.904;8.110;2023-04-15T09:32:08;1.33;;;0.50;;
21771;SDS011;11047;47.904;8.110;2023-04-15T09:34:35;3.83;;;1.80;;
21771;SDS011;11047;47.904;8.110;2023-04-15T09:37:02;4.28;;;1.38;;
21771;SDS011;11047;47.904;8.110;2023-04-15T09:39:44;2.55;;;1.58;;
21771;SDS011;11047;47.904;8.110;2023-04-15T09:42:13;1.52;;;0.88;;
21771;SDS011;11047;47.904;8.110;2023-04-15T09:44:41;3.10;;;1.27;;
21771;SDS011;11047;47.904;8.110;2023-04-15T09:47:09;4.57;;;0.82;;
21771;SDS011;11047;47.904;8.110;2023-04-15T09:49:54;3.03;;;0.80;;
21771;SDS011;11047;47.904;8.110;2023-04-15T09:52:21;1.90;;;0.80;;
21771;SDS011;11047;47.904;8.110;2023-04-15T09:54:49;6.03;;;1.10;;
21771;SDS011;11047;47.904;8.110;2023-04-15T09:57:20;3.83;;;1.02;;
21771;SDS011;11047;47.904;8.110;2023-04-15T09:59:47;5.35;;;0.80;;
21771;SDS011;11047;47.904;8.110;2023-04-15T10:02:14;2.53;;;0.82;;
21771;SDS011;11047;47.904;8.110;2023-04-15T10:04:43;4.95;;;0.75;;
21771;SDS011;11047;47.904;8.110;2023-04-15T10:07:12;4.32;;;0.77;;
21771;SDS011;11047;47.904;8.110;2023-04-15T10:09:42;7.47;;;1.30;;
21771;SDS011;11047;47.904;8.110;2023-04-15T10:12:11;3.53;;;1.52;;
21771;SDS011;11047;47.904;8.110;2023-04-15T10:14:40;4.63;;;1.23;;
21771;SDS011;11047;47.904;8.110;2023-04-15T10:17:09;3.15;;;0.93;;
21771;SDS011;11047;47.904;8.110;2023-04-15T10:19:37;3.13;;;0.90;;
21771;SDS011;11047;47.904;8.110;2023-04-15T10:22:04;2.88;;;1.58;;
21771;SDS011;11047;47.904;8.110;2023-04-15T10:24:32;4.78;;;1.00;;
21771;SDS011;11047;47.904;8.110;2023-04-15T10:26:59;2.92;;;1.20;;
21771;SDS011;11047;47.904;8.110;2023-04-15T10:29:28;3.22;;;1.00;;
21771;SDS011;11047;47.904;8.110;2023-04-15T10:31:57;7.25;;;1.45;;
21771;SDS011;11047;47.904;8.110;2023-04-15T10:34:25;3.72;;;1.48;;
21771;SDS011;11047;47.904;8.110;2023-04-15T10:36:54;9.40;;;1.65;;
21771;SDS011;11047;47.904;8.110;2023-04-15T10:39:37;3.25;;;1.05;;
21771;SDS011;11047;47.904;8.110;2023-04-15T10:42:07;5.15;;;1.10;;
21771;SDS011;11047;47.904;8.110;2023-04-15T10:44:35;4.43;;;1.20;;
21771;SDS011;11047;47.904;8.110;2023-04-15T10:47:05;1.25;;;0.98;;
21771;SDS011;11047;47.904;8.110;2023-04-15T10:49:42;3.53;;;1.02;;
21771;SDS011;11047;47.904;8.110;2023-04-15T10:52:10;3.75;;;0.88;;
21771;SDS011;11047;47.904;8.110;2023-04-15T10:54:37;3.33;;;1.85;;
21771;SDS011;11047;47.904;8.110;2023-04-15T10:57:08;4.40;;;1.40;;
21771;SDS011;11047;47.904;8.110;2023-04-15T11:02:44;4.10;;;1.10;;
21771;SDS011;11047;47.904;8.110;2023-04-15T11:05:12;2.17;;;0.90;;
21771;SDS011;11047;47.904;8.110;2023-04-15T11:07:50;2.00;;;1.13;;
21771;SDS011;11047;47.904;8.110;2023-04-15T11:13:22;7.47;;;1.95;;
21771;SDS011;11047;47.904;8.110;2023-04-15T11:15:56;2.97;;;2.35;;
21771;SDS011;11047;47.904;8.110;2023-04-15T11:18:27;4.15;;;1.52;;
21771;SDS011;11047;47.904;8.110;2023-04-15T11:20:59;2.80;;;1.10;;
21771;SDS011;11047;47.904;8.110;2023-04-15T11:23:31;5.53;;;1.63;;
21771;SDS011;11047;47.904;8.110;2023-04-15T11:26:00;3.53;;;1.85;;
21771;SDS011;11047;47.904;8.110;2023-04-15T11:28:30;3.33;;;1.65;;
21771;SDS011;11047;47.904;8.110;2023-04-15T11:30:58;2.67;;;1.70;;
21771;SDS011;11047;47.904;8.110;2023-04-15T11:33:33;4.63;;;1.75;;
21771;SDS011;11047;47.904;8.110;2023-04-15T11:36:00;3.25;;;1.60;;
21771;SDS011;11047;47.904;8.110;2023-04-15T11:38:28;4.47;;;1.73;;
21771;SDS011;11047;47.904;8.110;2023-04-15T11:40:55;5.88;;;2.58;;
21771;SDS011;11047;47.904;8.110;2023-04-15T11:43:22;5.45;;;1.98;;
21771;SDS011;11047;47.904;8.110;2023-04-15T11:45:51;3.95;;;2.45;;
21771;SDS011;11047;47.904;8.110;2023-04-15T11:48:19;3.28;;;1.92;;
21771;SDS011;11047;47.904;8.110;2023-04-15T11:50:53;2.35;;;1.42;;
21771;SDS011;11047;47.904;8.110;2023-04-15T11:53:21;3.75;;;1.88;;
21771;SDS011;11047;47.904;8.110;2023-04-15T11:55:48;4.05;;;1.60;;
21771;SDS011;11047;47.904;8.110;2023-04-15T11:58:18;4.93;;;1.45;;
21771;SDS011;11047;47.904;8.110;2023-04-15T12:00:46;5.30;;;2.05;;
21771;SDS011;11047;47.904;8.110;2023-04-15T12:03:18;3.47;;;2.22;;
21771;SDS011;11047;47.904;8.110;2023-04-15T12:11:34;3.45;;;1.55;;
21771;SDS011;11047;47.904;8.110;2023-04-15T12:14:09;3.88;;;2.00;;
21771;SDS011;11047;47.904;8.110;2023-04-15T12:16:39;4.70;;;1.92;;
21771;SDS011;11047;47.904;8.110;2023-04-15T12:19:08;5.22;;;2.33;;
21771;SDS011;11047;47.904;8.110;2023-04-15T12:21:39;3.08;;;2.30;;
21771;SDS011;11047;47.904;8.110;2023-04-15T12:24:07;3.45;;;2.20;;
21771;SDS011;11047;47.904;8.110;2023-04-15T12:26:36;3.17;;;2.00;;
21771;SDS011;11047;47.904;8.110;2023-04-15T12:29:09;2.33;;;1.90;;
21771;SDS011;11047;47.904;8.110;2023-04-15T12:31:45;4.47;;;2.38;;
21771;SDS011;11047;47.904;8.110;2023-04-15T12:34:14;4.88;;;2.55;;
21771;SDS011;11047;47.904;8.110;2023-04-15T12:36:43;2.65;;;2.00;;
21771;SDS011;11047;47.904;8.110;2023-04-15T12:39:10;6.13;;;2.15;;
21771;SDS011;11047;47.904;8.110;2023-04-15T12:41:37;5.68;;;1.70;;
21771;SDS011;11047;47.904;8.110;2023-04-15T12:44:04;3.53;;;2.50;;
21771;SDS011;11047;47.904;8.110;2023-04-15T12:46:31;6.55;;;2.67;;
21771;SDS011;11047;47.904;8.110;2023-04-15T12:48:57;6.95;;;3.50;;
21771;SDS011;11047;47.904;8.110;2023-04-15T12:51:24;5.32;;;2.60;;
21771;SDS011;11047;47.904;8.110;2023-04-15T12:53:53;3.05;;;2.20;;
21771;SDS011;11047;47.904;8.110;2023-04-15T12:56:20;4.78;;;2.40;;
21771;SDS011;11047;47.904;8.110;2023-04-15T12:58:47;2.92;;;2.28;;
21771;SDS011;11047;47.904;8.110;2023-04-15T13:01:15;3.60;;;2.25;;
21771;SDS011;11047;47.904;8.110;2023-04-15T13:03:42;4.47;;;2.53;;
21771;SDS011;11047;47.904;8.110;2023-04-15T13:06:09;4.97;;;2.22;;
21771;SDS011;11047;47.904;8.110;2023-04-15T13:08:36;3.30;;;2.05;;
21771;SDS011;11047;47.904;8.110;2023-04-15T13:11:04;4.68;;;2.53;;
21771;SDS011;11047;47.904;8.110;2023-04-15T13:13:31;5.15;;;3.10;;
21771;SDS011;11047;47.904;8.110;2023-04-15T13:15:58;5.57;;;2.67;;
21771;SDS011;11047;47.904;8.110;2023-04-15T13:18:25;6.88;;;3.05;;
21771;SDS011;11047;47.904;8.110;2023-04-15T13:20:53;8.48;;;2.97;;
21771;SDS011;11047;47.904;8.110;2023-04-15T13:23:20;3.58;;;2.13;;
21771;SDS011;11047;47.904;8.110;2023-04-15T13:25:47;4.85;;;2.42;;
21771;SDS011;11047;47.904;8.110;2023-04-15T13:28:15;5.45;;;3.15;;
21771;SDS011;11047;47.904;8.110;2023-04-15T13:30:42;5.38;;;2.90;;
21771;SDS011;11047;47.904;8.110;2023-04-15T13:33:10;6.93;;;3.20;;
21771;SDS011;11047;47.904;8.110;2023-04-15T13:35:37;6.50;;;3.30;;
21771;SDS011;11047;47.904;8.110;2023-04-15T13:38:04;4.43;;;3.05;;
21771;SDS011;11047;47.904;8.110;2023-04-15T13:40:31;4.10;;;2.50;;
21771;SDS011;11047;47.904;8.110;2023-04-15T13:42:58;5.30;;;3.38;;
21771;SDS011;11047;47.904;8.110;2023-04-15T13:45:27;5.60;;;2.88;;
21771;SDS011;11047;47.904;8.110;2023-04-15T13:47:54;5.43;;;2.92;;
21771;SDS011;11047;47.904;8.110;2023-04-15T13:50:21;5.40;;;2.70;;
21771;SDS011;11047;47.904;8.110;2023-04-15T13:52:48;3.72;;;2.78;;
21771;SDS011;11047;47.904;8.110;2023-04-15T13:55:15;6.88;;;3.17;;
21771;SDS011;11047;47.904;8.110;2023-04-15T13:57:42;6.90;;;2.95;;
21771;SDS011;11047;47.904;8.110;2023-04-15T14:00:09;6.88;;;3.67;;
21771;SDS011;11047;47.904;8.110;2023-04-15T14:02:38;4.72;;;3.35;;
21771;SDS011;11047;47.904;8.110;2023-04-15T14:05:05;3.50;;;3.05;;
21771;SDS011;11047;47.904;8.110;2023-04-15T14:07:33;6.55;;;3.75;;
21771;SDS011;11047;47.904;8.110;2023-04-15T14:10:00;5.00;;;3.15;;
21771;SDS011;11047;47.904;8.110;2023-04-15T14:12:27;7.47;;;2.53;;
21771;SDS011;11047;47.904;8.110;2023-04-15T14:14:53;6.85;;;3.35;;
21771;SDS011;11047;47.904;8.110;2023-04-15T14:17:20;4.40;;;3.05;;
21771;SDS011;11047;47.904;8.110;2023-04-15T14:19:49;6.15;;;3.05;;
21771;SDS011;11047;47.904;8.110;2023-04-15T14:22:15;4.78;;;2.67;;
21771;SDS011;11047;47.904;8.110;2023-04-15T14:24:43;4.85;;;3.13;;
21771;SDS011;11047;47.904;8.110;2023-04-15T14:27:12;3.28;;;2.15;;
21771;SDS011;11047;47.904;8.110;2023-04-15T14:29:40;4.40;;;1.90;;
21771;SDS011;11047;47.904;8.110;2023-04-15T14:32:07;7.07;;;2.08;;
21771;SDS011;11047;47.904;8.110;2023-04-15T14:34:34;4.10;;;2.05;;
21771;SDS011;11047;47.904;8.110;2023-04-15T14:37:02;5.88;;;2.80;;
21771;SDS011;11047;47.904;8.110;2023-04-15T14:39:30;4.13;;;2.10;;
21771;SDS011;11047;47.904;8.110;2023-04-15T14:41:57;2.08;;;1.48;;
21771;SDS011;11047;47.904;8.110;2023-04-15T14:44:24;4.70;;;1.77;;
21771;SDS011;11047;47.904;8.110;2023-04-15T14:46:51;4.72;;;2.08;;
21771;SDS011;11047;47.904;8.110;2023-04-15T14:49:18;3.25;;;2.08;;
21771;SDS011;11047;47.904;8.110;2023-04-15T14:51:45;3.55;;;2.00;;
21771;SDS011;11047;47.904;8.110;2023-04-15T14:54:14;3.83;;;2.10;;
21771;SDS011;11047;47.904;8.110;2023-04-15T14:56:41;4.40;;;2.17;;
21771;SDS011;11047;47.904;8.110;2023-04-15T14:59:07;6.05;;;2.05;;
21771;SDS011;11047;47.904;8.110;2023-04-15T15:01:34;3.22;;;1.98;;
21771;SDS011;11047;47.904;8.110;2023-04-15T15:04:01;4.00;;;2.60;;